sensor_id;sensor_type;location;lat;lon;timestamp;P1;durP1;ratioP1;P2;durP2;ratioP2
25391;SDS011;13329;48.402;11.718;2023-07-02T00:01:57;7.15;;;3.47;;
25391;SDS011;13329;48.402;11.718;2023-07-02T00:04:22;4.23;;;2.57;;
25391;SDS011;13329;48.402;11.718;2023-07-02T00:06:47;6.60;;;3.40;;
25391;SDS011;13329;48.402;11.718;2023-07-02T00:09:13;5.13;;;3.05;;
25391;SDS011;13329;48.402;11.718;2023-07-02T00:11:39;6.28;;;3.08;;
25391;SDS011;13329;48.402;11.718;2023-07-02T00:14:05;4.65;;;2.78;;
25391;SDS011;13329;48.402;11.718;2023-07-02T00:16:30;5.95;;;3.40;;
25391;SDS011;13329;48.402;11.718;2023-07-02T00:18:56;5.43;;;3.13;;
25391;SDS011;13329;48.402;11.718;2023-07-02T00:21:22;5.53;;;3.17;;
25391;SDS011;13329;48.402;11.718;2023-07-02T00:23:47;6.00;;;2.88;;
25391;SDS011;13329;48.402;11.718;2023-07-02T00:26:12;5.32;;;3.05;;
25391;SDS011;13329;48.402;11.718;2023-07-02T00:28:37;6.00;;;2.53;;
25391;SDS011;13329;48.402;11.718;2023-07-02T00:31:03;5.70;;;3.05;;
25391;SDS011;13329;48.402;11.718;2023-07-02T00:33:28;6.35;;;3.03;;
25391;SDS011;13329;48.402;11.718;2023-07-02T00:35:54;5.07;;;3.10;;
25391;SDS011;13329;48.402;11.718;2023-07-02T00:38:19;4.47;;;2.60;;
25391;SDS011;13329;48.402;11.718;2023-07-02T00:40:44;5.90;;;2.93;;
25391;SDS011;13329;48.402;11.718;2023-07-02T00:43:09;4.37;;;2.67;;
25391;SDS011;13329;48.402;11.718;2023-07-02T00:45:37;6.15;;;3.28;;
25391;SDS011;13329;48.402;11.718;2023-07-02T00:48:04;4.88;;;2.88;;
25391;SDS011;13329;48.402;11.718;2023-07-02T00:50:30;5.70;;;2.60;;
25391;SDS011;13329;48.402;11.718;2023-07-02T00:52:55;5.20;;;2.83;;
25391;SDS011;13329;48.402;11.718;2023-07-02T00:55:20;5.97;;;2.95;;
25391;SDS011;13329;48.402;11.718;2023-07-02T00:57:46;3.88;;;2.28;;
25391;SDS011;13329;48.402;11.718;2023-07-02T01:00:11;4.53;;;2.88;;
25391;SDS011;13329;48.402;11.718;2023-07-02T01:02:36;4.57;;;2.63;;
25391;SDS011;13329;48.402;11.718;2023-07-02T01:05:03;5.78;;;2.35;;
25391;SDS011;13329;48.402;11.718;2023-07-02T01:07:28;3.35;;;2.35;;
25391;SDS011;13329;48.402;11.718;2023-07-02T01:09:53;3.63;;;2.50;;
25391;SDS011;13329;48.402;11.718;2023-07-02T01:12:19;4.45;;;2.85;;
25391;SDS011;13329;48.402;11.718;2023-07-02T01:14:51;4.72;;;2.50;;
25391;SDS011;13329;48.402;11.718;2023-07-02T01:17:17;4.68;;;2.40;;
25391;SDS011;13329;48.402;11.718;2023-07-02T01:22:22;4.30;;;2.40;;
25391;SDS011;13329;48.402;11.718;2023-07-02T01:24:47;4.03;;;2.60;;
25391;SDS011;13329;48.402;11.718;2023-07-02T01:27:13;2.42;;;1.88;;
25391;SDS011;13329;48.402;11.718;2023-07-02T01:29:39;3.67;;;2.30;;
25391;SDS011;13329;48.402;11.718;2023-07-02T01:32:05;2.83;;;1.60;;
25391;SDS011;13329;48.402;11.718;2023-07-02T01:34:30;3.80;;;2.40;;
25391;SDS011;13329;48.402;11.718;2023-07-02T01:36:55;3.95;;;2.30;;
25391;SDS011;13329;48.402;11.718;2023-07-02T01:39:21;5.43;;;2.55;;
25391;SDS011;13329;48.402;11.718;2023-07-02T01:41:49;3.37;;;2.37;;
25391;SDS011;13329;48.402;11.718;2023-07-02T01:44:15;4.50;;;2.35;;
25391;SDS011;13329;48.402;11.718;2023-07-02T01:46:40;3.93;;;2.23;;
25391;SDS011;13329;48.402;11.718;2023-07-02T01:49:05;4.67;;;2.70;;
25391;SDS011;13329;48.402;11.718;2023-07-02T01:51:30;4.73;;;2.80;;
25391;SDS011;13329;48.402;11.718;2023-07-02T01:53:55;4.72;;;2.20;;
25391;SDS011;13329;48.402;11.718;2023-07-02T01:56:20;2.20;;;1.83;;
25391;SDS011;13329;48.402;11.718;2023-07-02T01:58:46;2.90;;;1.97;;
25391;SDS011;13329;48.402;11.718;2023-07-02T02:01:11;4.77;;;2.57;;
25391;SDS011;13329;48.402;11.718;2023-07-02T02:03:36;3.10;;;2.13;;
25391;SDS011;13329;48.402;11.718;2023-07-02T02:06:01;3.50;;;1.98;;
25391;SDS011;13329;48.402;11.718;2023-07-02T02:08:26;2.87;;;1.97;;
25391;SDS011;13329;48.402;11.718;2023-07-02T02:10:51;4.65;;;2.17;;
25391;SDS011;13329;48.402;11.718;2023-07-02T02:13:16;2.83;;;1.87;;
25391;SDS011;13329;48.402;11.718;2023-07-02T02:15:42;3.70;;;1.70;;
25391;SDS011;13329;48.402;11.718;2023-07-02T02:18:07;3.60;;;2.23;;
25391;SDS011;13329;48.402;11.718;2023-07-02T02:20:32;4.37;;;1.80;;
25391;SDS011;13329;48.402;11.718;2023-07-02T02:22:57;2.93;;;1.67;;
25391;SDS011;13329;48.402;11.718;2023-07-02T02:25:22;3.03;;;1.70;;
25391;SDS011;13329;48.402;11.718;2023-07-02T02:27:48;3.10;;;1.53;;
25391;SDS011;13329;48.402;11.718;2023-07-02T02:30:13;2.37;;;1.77;;
25391;SDS011;13329;48.402;11.718;2023-07-02T02:32:38;2.43;;;1.70;;
25391;SDS011;13329;48.402;11.718;2023-07-02T02:35:03;4.63;;;1.37;;
25391;SDS011;13329;48.402;11.718;2023-07-02T02:37:28;4.38;;;1.83;;
25391;SDS011;13329;48.402;11.718;2023-07-02T02:39:55;2.55;;;1.45;;
25391;SDS011;13329;48.402;11.718;2023-07-02T02:42:22;2.47;;;1.42;;
25391;SDS011;13329;48.402;11.718;2023-07-02T02:44:47;6.47;;;1.80;;
25391;SDS011;13329;48.402;11.718;2023-07-02T02:47:12;3.20;;;1.87;;
25391;SDS011;13329;48.402;11.718;2023-07-02T02:49:37;2.87;;;1.60;;
25391;SDS011;13329;48.402;11.718;2023-07-02T02:52:03;2.97;;;1.65;;
25391;SDS011;13329;48.402;11.718;2023-07-02T02:54:29;2.83;;;1.50;;
25391;SDS011;13329;48.402;11.718;2023-07-02T02:56:54;2.75;;;1.77;;
25391;SDS011;13329;48.402;11.718;2023-07-02T02:59:19;2.70;;;1.70;;
25391;SDS011;13329;48.402;11.718;2023-07-02T03:01:44;3.50;;;1.70;;
25391;SDS011;13329;48.402;11.718;2023-07-02T03:04:09;7.30;;;2.27;;
25391;SDS011;13329;48.402;11.718;2023-07-02T03:06:34;3.37;;;1.80;;
25391;SDS011;13329;48.402;11.718;2023-07-02T03:09:00;4.32;;;1.77;;
25391;SDS011;13329;48.402;11.718;2023-07-02T03:11:25;4.40;;;1.73;;
25391;SDS011;13329;48.402;11.718;2023-07-02T03:13:50;3.80;;;1.75;;
25391;SDS011;13329;48.402;11.718;2023-07-02T03:16:15;3.07;;;1.30;;
25391;SDS011;13329;48.402;11.718;2023-07-02T03:18:40;3.80;;;1.90;;
25391;SDS011;13329;48.402;11.718;2023-07-02T03:21:06;3.23;;;1.93;;
25391;SDS011;13329;48.402;11.718;2023-07-02T03:23:31;5.97;;;1.90;;
25391;SDS011;13329;48.402;11.718;2023-07-02T03:25:56;3.38;;;2.00;;
25391;SDS011;13329;48.402;11.718;2023-07-02T03:28:21;2.80;;;1.87;;
25391;SDS011;13329;48.402;11.718;2023-07-02T03:30:46;4.03;;;1.93;;
25391;SDS011;13329;48.402;11.718;2023-07-02T03:33:11;5.13;;;2.03;;
25391;SDS011;13329;48.402;11.718;2023-07-02T03:35:37;3.40;;;1.90;;
25391;SDS011;13329;48.402;11.718;2023-07-02T03:38:03;4.70;;;2.30;;
25391;SDS011;13329;48.402;11.718;2023-07-02T03:40:28;3.45;;;1.55;;
25391;SDS011;13329;48.402;11.718;2023-07-02T03:42:53;6.03;;;2.00;;
25391;SDS011;13329;48.402;11.718;2023-07-02T03:45:18;3.57;;;1.70;;
25391;SDS011;13329;48.402;11.718;2023-07-02T03:47:43;2.30;;;1.33;;
25391;SDS011;13329;48.402;11.718;2023-07-02T03:50:09;3.17;;;2.03;;
25391;SDS011;13329;48.402;11.718;2023-07-02T03:52:34;2.55;;;1.70;;
25391;SDS011;13329;48.402;11.718;2023-07-02T03:54:59;3.93;;;1.80;;
25391;SDS011;13329;48.402;11.718;2023-07-02T03:57:24;3.97;;;2.20;;
25391;SDS011;13329;48.402;11.718;2023-07-02T03:59:51;2.95;;;1.77;;
25391;SDS011;13329;48.402;11.718;2023-07-02T04:02:16;4.60;;;2.15;;
25391;SDS011;13329;48.402;11.718;2023-07-02T04:04:41;4.30;;;1.77;;
25391;SDS011;13329;48.402;11.718;2023-07-02T04:07:06;3.78;;;2.10;;
25391;SDS011;13329;48.402;11.718;2023-07-02T04:09:31;3.55;;;2.22;;
25391;SDS011;13329;48.402;11.718;2023-07-02T04:11:57;5.15;;;1.88;;
25391;SDS011;13329;48.402;11.718;2023-07-02T04:14:23;3.67;;;2.27;;
25391;SDS011;13329;48.402;11.718;2023-07-02T04:16:48;4.97;;;2.03;;
25391;SDS011;13329;48.402;11.718;2023-07-02T04:19:13;4.37;;;2.00;;
25391;SDS011;13329;48.402;11.718;2023-07-02T04:21:38;4.53;;;1.88;;
25391;SDS011;13329;48.402;11.718;2023-07-02T04:24:03;4.30;;;2.03;;
25391;SDS011;13329;48.402;11.718;2023-07-02T04:26:29;2.38;;;1.63;;
25391;SDS011;13329;48.402;11.718;2023-07-02T04:28:54;2.83;;;1.98;;
25391;SDS011;13329;48.402;11.718;2023-07-02T04:31:20;7.13;;;2.28;;
25391;SDS011;13329;48.402;11.718;2023-07-02T04:33:45;4.78;;;2.22;;
25391;SDS011;13329;48.402;11.718;2023-07-02T04:36:10;3.60;;;1.87;;
25391;SDS011;13329;48.402;11.718;2023-07-02T04:38:37;3.22;;;2.10;;
25391;SDS011;13329;48.402;11.718;2023-07-02T04:41:04;3.97;;;1.80;;
25391;SDS011;13329;48.402;11.718;2023-07-02T04:43:30;4.78;;;2.13;;
25391;SDS011;13329;48.402;11.718;2023-07-02T04:45:56;2.40;;;1.50;;
25391;SDS011;13329;48.402;11.718;2023-07-02T04:48:21;11.20;;;2.00;;
25391;SDS011;13329;48.402;11.718;2023-07-02T04:50:46;6.27;;;2.00;;
25391;SDS011;13329;48.402;11.718;2023-07-02T04:53:11;4.47;;;1.90;;
25391;SDS011;13329;48.402;11.718;2023-07-02T04:55:36;2.33;;;1.60;;
25391;SDS011;13329;48.402;11.718;2023-07-02T04:58:02;3.00;;;1.88;;
25391;SDS011;13329;48.402;11.718;2023-07-02T05:00:27;3.45;;;1.98;;
25391;SDS011;13329;48.402;11.718;2023-07-02T05:02:52;3.20;;;2.03;;
25391;SDS011;13329;48.402;11.718;2023-07-02T05:05:17;3.22;;;2.42;;
25391;SDS011;13329;48.402;11.718;2023-07-02T05:07:43;2.78;;;1.77;;
25391;SDS011;13329;48.402;11.718;2023-07-02T05:10:08;3.10;;;1.90;;
25391;SDS011;13329;48.402;11.718;2023-07-02T05:12:33;4.00;;;2.20;;
25391;SDS011;13329;48.402;11.718;2023-07-02T05:14:59;3.13;;;1.93;;
25391;SDS011;13329;48.402;11.718;2023-07-02T05:17:24;4.30;;;2.40;;
25391;SDS011;13329;48.402;11.718;2023-07-02T05:19:49;6.77;;;2.10;;
25391;SDS011;13329;48.402;11.718;2023-07-02T05:22:14;4.82;;;2.28;;
25391;SDS011;13329;48.402;11.718;2023-07-02T05:24:39;4.10;;;2.20;;
25391;SDS011;13329;48.402;11.718;2023-07-02T05:27:05;4.78;;;2.00;;
25391;SDS011;13329;48.402;11.718;2023-07-02T05:29:31;4.30;;;2.47;;
25391;SDS011;13329;48.402;11.718;2023-07-02T05:31:56;3.50;;;2.23;;
25391;SDS011;13329;48.402;11.718;2023-07-02T05:34:21;3.60;;;2.37;;
25391;SDS011;13329;48.402;11.718;2023-07-02T05:36:46;6.40;;;2.38;;
25391;SDS011;13329;48.402;11.718;2023-07-02T05:39:12;5.50;;;2.10;;
25391;SDS011;13329;48.402;11.718;2023-07-02T05:41:37;3.93;;;2.03;;
25391;SDS011;13329;48.402;11.718;2023-07-02T05:44:02;7.83;;;2.37;;
25391;SDS011;13329;48.402;11.718;2023-07-02T05:46:27;3.60;;;2.47;;
25391;SDS011;13329;48.402;11.718;2023-07-02T05:48:52;3.90;;;2.25;;
25391;SDS011;13329;48.402;11.718;2023-07-02T05:51:21;4.65;;;2.75;;
25391;SDS011;13329;48.402;11.718;2023-07-02T05:53:46;7.28;;;2.53;;
25391;SDS011;13329;48.402;11.718;2023-07-02T05:56:12;5.13;;;2.30;;
25391;SDS011;13329;48.402;11.718;2023-07-02T05:58:37;2.50;;;2.00;;
25391;SDS011;13329;48.402;11.718;2023-07-02T06:01:02;3.13;;;2.33;;
25391;SDS011;13329;48.402;11.718;2023-07-02T06:03:27;4.03;;;2.23;;
25391;SDS011;13329;48.402;11.718;2023-07-02T06:05:52;3.50;;;1.90;;
25391;SDS011;13329;48.402;11.718;2023-07-02T06:08:17;3.05;;;2.05;;
25391;SDS011;13329;48.402;11.718;2023-07-02T06:10:43;3.58;;;2.00;;
25391;SDS011;13329;48.402;11.718;2023-07-02T06:13:08;3.88;;;2.17;;
25391;SDS011;13329;48.402;11.718;2023-07-02T06:15:33;39.87;;;17.90;;
25391;SDS011;13329;48.402;11.718;2023-07-02T06:17:59;7.57;;;4.30;;
25391;SDS011;13329;48.402;11.718;2023-07-02T06:20:24;9.07;;;4.37;;
25391;SDS011;13329;48.402;11.718;2023-07-02T06:22:49;5.07;;;2.60;;
25391;SDS011;13329;48.402;11.718;2023-07-02T06:25:14;5.03;;;2.47;;
25391;SDS011;13329;48.402;11.718;2023-07-02T06:27:39;4.37;;;3.30;;
25391;SDS011;13329;48.402;11.718;2023-07-02T06:30:06;5.30;;;3.35;;
25391;SDS011;13329;48.402;11.718;2023-07-02T06:32:31;3.85;;;2.50;;
25391;SDS011;13329;48.402;11.718;2023-07-02T06:34:57;4.00;;;2.83;;
25391;SDS011;13329;48.402;11.718;2023-07-02T06:37:22;5.22;;;2.92;;
25391;SDS011;13329;48.402;11.718;2023-07-02T06:39:47;5.13;;;2.53;;
25391;SDS011;13329;48.402;11.718;2023-07-02T06:42:12;4.05;;;2.85;;
25391;SDS011;13329;48.402;11.718;2023-07-02T06:44:37;4.63;;;2.77;;
25391;SDS011;13329;48.402;11.718;2023-07-02T06:47:02;4.63;;;2.58;;
25391;SDS011;13329;48.402;11.718;2023-07-02T06:49:28;6.30;;;2.50;;
25391;SDS011;13329;48.402;11.718;2023-07-02T06:51:53;6.23;;;2.07;;
25391;SDS011;13329;48.402;11.718;2023-07-02T06:54:18;4.60;;;1.95;;
25391;SDS011;13329;48.402;11.718;2023-07-02T06:56:43;4.73;;;2.47;;
25391;SDS011;13329;48.402;11.718;2023-07-02T06:59:08;5.57;;;2.20;;
25391;SDS011;13329;48.402;11.718;2023-07-02T07:01:33;2.80;;;1.90;;
25391;SDS011;13329;48.402;11.718;2023-07-02T07:04:00;8.68;;;2.25;;
25391;SDS011;13329;48.402;11.718;2023-07-02T07:06:25;4.97;;;1.90;;
25391;SDS011;13329;48.402;11.718;2023-07-02T07:08:50;4.20;;;2.08;;
25391;SDS011;13329;48.402;11.718;2023-07-02T07:11:15;4.70;;;1.75;;
25391;SDS011;13329;48.402;11.718;2023-07-02T07:13:41;6.13;;;2.10;;
25391;SDS011;13329;48.402;11.718;2023-07-02T07:16:07;4.07;;;1.95;;
25391;SDS011;13329;48.402;11.718;2023-07-02T07:18:32;5.18;;;2.60;;
25391;SDS011;13329;48.402;11.718;2023-07-02T07:20:57;3.50;;;1.88;;
25391;SDS011;13329;48.402;11.718;2023-07-02T07:23:22;4.83;;;2.13;;
25391;SDS011;13329;48.402;11.718;2023-07-02T07:25:47;3.83;;;2.27;;
25391;SDS011;13329;48.402;11.718;2023-07-02T07:28:13;4.17;;;2.10;;
25391;SDS011;13329;48.402;11.718;2023-07-02T07:30:41;3.72;;;2.33;;
25391;SDS011;13329;48.402;11.718;2023-07-02T07:33:06;3.45;;;2.20;;
25391;SDS011;13329;48.402;11.718;2023-07-02T07:35:31;4.53;;;2.10;;
25391;SDS011;13329;48.402;11.718;2023-07-02T07:37:57;4.60;;;2.30;;
25391;SDS011;13329;48.402;11.718;2023-07-02T07:40:22;4.78;;;2.38;;
25391;SDS011;13329;48.402;11.718;2023-07-02T07:42:47;6.67;;;2.23;;
25391;SDS011;13329;48.402;11.718;2023-07-02T07:45:12;5.07;;;2.80;;
25391;SDS011;13329;48.402;11.718;2023-07-02T07:47:38;9.37;;;2.53;;
25391;SDS011;13329;48.402;11.718;2023-07-02T07:50:03;4.07;;;2.20;;
25391;SDS011;13329;48.402;11.718;2023-07-02T07:52:34;3.78;;;2.47;;
25391;SDS011;13329;48.402;11.718;2023-07-02T07:54:59;3.93;;;2.20;;
25391;SDS011;13329;48.402;11.718;2023-07-02T07:57:25;4.57;;;2.57;;
25391;SDS011;13329;48.402;11.718;2023-07-02T07:59:50;4.43;;;2.40;;
25391;SDS011;13329;48.402;11.718;2023-07-02T08:02:15;7.40;;;2.53;;
25391;SDS011;13329;48.402;11.718;2023-07-02T08:04:40;9.35;;;2.47;;
25391;SDS011;13329;48.402;11.718;2023-07-02T08:07:05;5.27;;;2.63;;
25391;SDS011;13329;48.402;11.718;2023-07-02T08:09:33;6.63;;;2.80;;
25391;SDS011;13329;48.402;11.718;2023-07-02T08:11:58;4.17;;;2.67;;
25391;SDS011;13329;48.402;11.718;2023-07-02T08:14:23;7.03;;;2.90;;
25391;SDS011;13329;48.402;11.718;2023-07-02T08:16:49;7.57;;;3.30;;
25391;SDS011;13329;48.402;11.718;2023-07-02T08:19:14;5.00;;;3.33;;
25391;SDS011;13329;48.402;11.718;2023-07-02T08:21:39;4.17;;;2.33;;
25391;SDS011;13329;48.402;11.718;2023-07-02T08:24:04;6.20;;;2.77;;
25391;SDS011;13329;48.402;11.718;2023-07-02T08:26:30;5.00;;;2.58;;
25391;SDS011;13329;48.402;11.718;2023-07-02T08:28:56;4.67;;;2.50;;
25391;SDS011;13329;48.402;11.718;2023-07-02T08:31:21;4.85;;;2.47;;
25391;SDS011;13329;48.402;11.718;2023-07-02T08:33:46;4.00;;;2.60;;
25391;SDS011;13329;48.402;11.718;2023-07-02T08:36:11;6.15;;;2.55;;
25391;SDS011;13329;48.402;11.718;2023-07-02T08:38:38;4.15;;;2.50;;
25391;SDS011;13329;48.402;11.718;2023-07-02T08:41:06;4.80;;;2.60;;
25391;SDS011;13329;48.402;11.718;2023-07-02T08:43:31;4.30;;;2.40;;
25391;SDS011;13329;48.402;11.718;2023-07-02T08:45:57;5.47;;;2.90;;
25391;SDS011;13329;48.402;11.718;2023-07-02T08:48:22;5.20;;;2.97;;
25391;SDS011;13329;48.402;11.718;2023-07-02T08:50:49;4.65;;;2.83;;
25391;SDS011;13329;48.402;11.718;2023-07-02T08:53:14;6.17;;;3.13;;
25391;SDS011;13329;48.402;11.718;2023-07-02T08:55:40;3.65;;;2.47;;
25391;SDS011;13329;48.402;11.718;2023-07-02T08:58:05;5.73;;;2.93;;
25391;SDS011;13329;48.402;11.718;2023-07-02T09:00:30;4.63;;;2.42;;
25391;SDS011;13329;48.402;11.718;2023-07-02T09:03:10;5.28;;;3.10;;
25391;SDS011;13329;48.402;11.718;2023-07-02T09:05:35;6.20;;;2.70;;
25391;SDS011;13329;48.402;11.718;2023-07-02T09:08:00;5.53;;;2.78;;
25391;SDS011;13329;48.402;11.718;2023-07-02T09:10:26;6.30;;;2.60;;
25391;SDS011;13329;48.402;11.718;2023-07-02T09:13:02;4.47;;;2.15;;
25391;SDS011;13329;48.402;11.718;2023-07-02T09:15:27;5.00;;;2.55;;
25391;SDS011;13329;48.402;11.718;2023-07-02T09:17:59;6.60;;;2.60;;
25391;SDS011;13329;48.402;11.718;2023-07-02T09:20:31;6.22;;;2.78;;
25391;SDS011;13329;48.402;11.718;2023-07-02T09:22:57;6.40;;;2.40;;
25391;SDS011;13329;48.402;11.718;2023-07-02T09:25:22;3.93;;;2.50;;
25391;SDS011;13329;48.402;11.718;2023-07-02T09:27:47;5.15;;;2.20;;
25391;SDS011;13329;48.402;11.718;2023-07-02T09:30:13;4.60;;;2.42;;
25391;SDS011;13329;48.402;11.718;2023-07-02T09:32:40;7.15;;;3.05;;
25391;SDS011;13329;48.402;11.718;2023-07-02T09:35:06;7.03;;;2.97;;
25391;SDS011;13329;48.402;11.718;2023-07-02T09:37:31;7.47;;;2.42;;
25391;SDS011;13329;48.402;11.718;2023-07-02T09:39:56;7.30;;;2.83;;
25391;SDS011;13329;48.402;11.718;2023-07-02T09:42:22;8.73;;;3.00;;
25391;SDS011;13329;48.402;11.718;2023-07-02T09:44:47;5.50;;;2.80;;
25391;SDS011;13329;48.402;11.718;2023-07-02T09:47:14;7.47;;;3.03;;
25391;SDS011;13329;48.402;11.718;2023-07-02T09:49:44;4.57;;;2.60;;
25391;SDS011;13329;48.402;11.718;2023-07-02T09:52:10;7.13;;;3.03;;
25391;SDS011;13329;48.402;11.718;2023-07-02T09:54:36;9.93;;;3.30;;
25391;SDS011;13329;48.402;11.718;2023-07-02T09:57:02;6.57;;;2.75;;
25391;SDS011;13329;48.402;11.718;2023-07-02T09:59:27;5.45;;;2.97;;
25391;SDS011;13329;48.402;11.718;2023-07-02T10:01:53;5.57;;;2.85;;
25391;SDS011;13329;48.402;11.718;2023-07-02T10:04:19;4.60;;;2.83;;
25391;SDS011;13329;48.402;11.718;2023-07-02T10:06:48;7.50;;;2.90;;
25391;SDS011;13329;48.402;11.718;2023-07-02T10:09:15;7.47;;;3.35;;
25391;SDS011;13329;48.402;11.718;2023-07-02T10:11:40;7.63;;;3.42;;
25391;SDS011;13329;48.402;11.718;2023-07-02T10:14:06;5.13;;;2.30;;
25391;SDS011;13329;48.402;11.718;2023-07-02T10:16:31;5.00;;;2.57;;
25391;SDS011;13329;48.402;11.718;2023-07-02T10:19:10;5.55;;;3.17;;
25391;SDS011;13329;48.402;11.718;2023-07-02T10:21:35;6.75;;;2.95;;
25391;SDS011;13329;48.402;11.718;2023-07-02T10:24:10;6.27;;;2.90;;
25391;SDS011;13329;48.402;11.718;2023-07-02T10:26:35;5.82;;;3.25;;
25391;SDS011;13329;48.402;11.718;2023-07-02T10:29:01;5.40;;;2.88;;
25391;SDS011;13329;48.402;11.718;2023-07-02T10:31:27;7.63;;;3.28;;
25391;SDS011;13329;48.402;11.718;2023-07-02T10:33:52;8.33;;;3.53;;
25391;SDS011;13329;48.402;11.718;2023-07-02T10:36:18;5.80;;;2.87;;
25391;SDS011;13329;48.402;11.718;2023-07-02T10:38:44;15.45;;;4.22;;
25391;SDS011;13329;48.402;11.718;2023-07-02T10:41:09;11.53;;;4.40;;
25391;SDS011;13329;48.402;11.718;2023-07-02T10:43:34;8.95;;;3.80;;
25391;SDS011;13329;48.402;11.718;2023-07-02T10:45:59;10.48;;;3.88;;
25391;SDS011;13329;48.402;11.718;2023-07-02T10:48:25;8.45;;;3.50;;
25391;SDS011;13329;48.402;11.718;2023-07-02T10:50:50;7.53;;;3.60;;
25391;SDS011;13329;48.402;11.718;2023-07-02T10:53:16;9.00;;;2.90;;
25391;SDS011;13329;48.402;11.718;2023-07-02T10:55:41;5.82;;;3.70;;
25391;SDS011;13329;48.402;11.718;2023-07-02T10:58:07;8.68;;;3.60;;
25391;SDS011;13329;48.402;11.718;2023-07-02T11:00:33;11.15;;;3.80;;
25391;SDS011;13329;48.402;11.718;2023-07-02T11:02:58;7.72;;;3.15;;
25391;SDS011;13329;48.402;11.718;2023-07-02T11:05:23;9.82;;;3.72;;
25391;SDS011;13329;48.402;11.718;2023-07-02T11:07:49;8.77;;;3.80;;
25391;SDS011;13329;48.402;11.718;2023-07-02T11:10:21;8.07;;;4.13;;
25391;SDS011;13329;48.402;11.718;2023-07-02T11:12:46;7.87;;;3.27;;
25391;SDS011;13329;48.402;11.718;2023-07-02T11:15:15;9.47;;;4.03;;
25391;SDS011;13329;48.402;11.718;2023-07-02T11:17:42;8.88;;;3.92;;
25391;SDS011;13329;48.402;11.718;2023-07-02T11:20:08;8.52;;;4.00;;
25391;SDS011;13329;48.402;11.718;2023-07-02T11:22:34;8.20;;;3.92;;
25391;SDS011;13329;48.402;11.718;2023-07-02T11:25:12;7.45;;;3.47;;
25391;SDS011;13329;48.402;11.718;2023-07-02T11:27:37;7.30;;;3.20;;
25391;SDS011;13329;48.402;11.718;2023-07-02T11:30:03;8.32;;;4.05;;
25391;SDS011;13329;48.402;11.718;2023-07-02T11:32:28;8.98;;;4.25;;
25391;SDS011;13329;48.402;11.718;2023-07-02T11:34:53;9.53;;;3.47;;
25391;SDS011;13329;48.402;11.718;2023-07-02T11:37:19;10.30;;;3.97;;
25391;SDS011;13329;48.402;11.718;2023-07-02T11:39:44;9.43;;;4.15;;
25391;SDS011;13329;48.402;11.718;2023-07-02T11:42:10;9.23;;;4.00;;
25391;SDS011;13329;48.402;11.718;2023-07-02T11:44:35;9.27;;;4.00;;
25391;SDS011;13329;48.402;11.718;2023-07-02T11:47:00;7.00;;;3.53;;
25391;SDS011;13329;48.402;11.718;2023-07-02T11:49:25;6.23;;;3.13;;
25391;SDS011;13329;48.402;11.718;2023-07-02T11:51:50;8.50;;;4.00;;
25391;SDS011;13329;48.402;11.718;2023-07-02T11:54:16;11.27;;;4.47;;
25391;SDS011;13329;48.402;11.718;2023-07-02T11:56:41;7.20;;;3.17;;
25391;SDS011;13329;48.402;11.718;2023-07-02T11:59:07;14.48;;;3.80;;
25391;SDS011;13329;48.402;11.718;2023-07-02T12:01:33;6.13;;;3.22;;
25391;SDS011;13329;48.402;11.718;2023-07-02T12:03:58;9.87;;;3.80;;
25391;SDS011;13329;48.402;11.718;2023-07-02T12:06:23;8.95;;;3.33;;
25391;SDS011;13329;48.402;11.718;2023-07-02T12:08:48;12.35;;;4.15;;
25391;SDS011;13329;48.402;11.718;2023-07-02T12:11:14;6.15;;;3.40;;
25391;SDS011;13329;48.402;11.718;2023-07-02T12:13:39;7.53;;;3.08;;
25391;SDS011;13329;48.402;11.718;2023-07-02T12:16:04;5.90;;;3.40;;
25391;SDS011;13329;48.402;11.718;2023-07-02T12:18:29;7.22;;;2.88;;
25391;SDS011;13329;48.402;11.718;2023-07-02T12:20:54;7.03;;;3.05;;
25391;SDS011;13329;48.402;11.718;2023-07-02T12:23:19;6.97;;;3.30;;
25391;SDS011;13329;48.402;11.718;2023-07-02T12:25:45;11.40;;;3.17;;
25391;SDS011;13329;48.402;11.718;2023-07-02T12:28:10;8.38;;;3.35;;
25391;SDS011;13329;48.402;11.718;2023-07-02T12:30:35;7.53;;;3.40;;
25391;SDS011;13329;48.402;11.718;2023-07-02T12:33:01;7.63;;;3.10;;
25391;SDS011;13329;48.402;11.718;2023-07-02T12:35:26;12.30;;;3.40;;
25391;SDS011;13329;48.402;11.718;2023-07-02T12:37:52;5.83;;;2.80;;
25391;SDS011;13329;48.402;11.718;2023-07-02T12:40:18;6.28;;;3.00;;
25391;SDS011;13329;48.402;11.718;2023-07-02T12:42:43;9.52;;;3.67;;
25391;SDS011;13329;48.402;11.718;2023-07-02T12:45:09;6.50;;;3.97;;
25391;SDS011;13329;48.402;11.718;2023-07-02T12:47:34;7.82;;;3.63;;
25391;SDS011;13329;48.402;11.718;2023-07-02T12:50:00;11.48;;;4.40;;
25391;SDS011;13329;48.402;11.718;2023-07-02T12:52:25;9.07;;;4.47;;
25391;SDS011;13329;48.402;11.718;2023-07-02T12:54:50;8.33;;;3.60;;
25391;SDS011;13329;48.402;11.718;2023-07-02T12:57:16;11.00;;;4.30;;
25391;SDS011;13329;48.402;11.718;2023-07-02T12:59:41;10.13;;;4.68;;
25391;SDS011;13329;48.402;11.718;2023-07-02T13:02:07;10.90;;;4.80;;
25391;SDS011;13329;48.402;11.718;2023-07-02T13:04:32;14.77;;;5.00;;
25391;SDS011;13329;48.402;11.718;2023-07-02T13:06:57;10.73;;;4.70;;
25391;SDS011;13329;48.402;11.718;2023-07-02T13:09:22;11.35;;;4.68;;
25391;SDS011;13329;48.402;11.718;2023-07-02T13:11:47;13.13;;;6.47;;
25391;SDS011;13329;48.402;11.718;2023-07-02T13:14:12;13.37;;;5.43;;
25391;SDS011;13329;48.402;11.718;2023-07-02T13:16:37;14.70;;;6.53;;
25391;SDS011;13329;48.402;11.718;2023-07-02T13:19:03;14.10;;;6.07;;
25391;SDS011;13329;48.402;11.718;2023-07-02T13:21:28;8.63;;;3.50;;
25391;SDS011;13329;48.402;11.718;2023-07-02T13:23:53;17.50;;;6.80;;
25391;SDS011;13329;48.402;11.718;2023-07-02T13:26:18;14.37;;;6.33;;
25391;SDS011;13329;48.402;11.718;2023-07-02T13:28:44;15.02;;;7.13;;
25391;SDS011;13329;48.402;11.718;2023-07-02T13:31:12;15.77;;;6.15;;
25391;SDS011;13329;48.402;11.718;2023-07-02T13:33:37;14.93;;;6.47;;
25391;SDS011;13329;48.402;11.718;2023-07-02T13:36:04;21.30;;;7.85;;
25391;SDS011;13329;48.402;11.718;2023-07-02T13:38:29;10.35;;;4.38;;
25391;SDS011;13329;48.402;11.718;2023-07-02T13:40:54;13.25;;;6.75;;
25391;SDS011;13329;48.402;11.718;2023-07-02T13:43:19;10.13;;;4.80;;
25391;SDS011;13329;48.402;11.718;2023-07-02T13:45:45;13.47;;;6.63;;
25391;SDS011;13329;48.402;11.718;2023-07-02T13:48:10;15.57;;;6.73;;
25391;SDS011;13329;48.402;11.718;2023-07-02T13:50:35;17.20;;;7.17;;
25391;SDS011;13329;48.402;11.718;2023-07-02T13:53:00;13.47;;;7.07;;
25391;SDS011;13329;48.402;11.718;2023-07-02T13:55:25;16.50;;;6.73;;
25391;SDS011;13329;48.402;11.718;2023-07-02T13:57:53;14.85;;;6.63;;
25391;SDS011;13329;48.402;11.718;2023-07-02T14:00:19;14.95;;;6.75;;
25391;SDS011;13329;48.402;11.718;2023-07-02T14:02:44;16.77;;;7.00;;
25391;SDS011;13329;48.402;11.718;2023-07-02T14:05:09;16.85;;;7.22;;
25391;SDS011;13329;48.402;11.718;2023-07-02T14:07:35;16.77;;;7.37;;
25391;SDS011;13329;48.402;11.718;2023-07-02T14:10:00;14.33;;;6.60;;
25391;SDS011;13329;48.402;11.718;2023-07-02T14:12:25;13.97;;;6.57;;
25391;SDS011;13329;48.402;11.718;2023-07-02T14:14:50;16.87;;;7.10;;
25391;SDS011;13329;48.402;11.718;2023-07-02T14:17:15;14.20;;;6.23;;
25391;SDS011;13329;48.402;11.718;2023-07-02T14:19:40;14.03;;;6.50;;
25391;SDS011;13329;48.402;11.718;2023-07-02T14:22:06;13.87;;;6.70;;
25391;SDS011;13329;48.402;11.718;2023-07-02T14:24:31;15.23;;;7.30;;
25391;SDS011;13329;48.402;11.718;2023-07-02T14:26:56;13.60;;;6.13;;